Time;durP1;ratioP1;P1;durP2;ratioP2;P2;SDS_P1;SDS_P2;PMS_P1;PMS_P2;Temp;Humidity;BMP_temperature;BMP_pressure;BME280_temperature;BME280_humidity;BME280_pressure;Samples;Min_cycle;Max_cycle;Signal;HPM_P1;HPM_P2
2022/10/28 00:00:30;;;;;;;;;11.50;11.00;;;;;17.34;63.78;102110.47;146618;664;46020;-83
2022/10/28 00:03:29;;;;;;;;;13.75;12.50;;;;;17.38;63.58;102109.75;146618;573;46012;-82
2022/10/28 00:06:29;;;;;;;;;15.50;13.50;;;;;17.37;64.29;102102.75;146619;610;46021;-81
2022/10/28 00:09:32;;;;;;;;;14.75;12.25;;;;;17.35;63.85;102106.09;146616;600;46016;-81
2022/10/28 00:12:41;;;;;;;;;15.00;13.50;;;;;15.41;64.24;101775.00;146617;577;47020;-80
2022/10/28 00:15:37;;;;;;;;;15.25;13.25;;;;;16.42;64.23;101948.06;146618;574;46012;-79
2022/10/28 00:18:41;;;;;;;;;16.50;14.00;;;;;17.27;64.72;102104.03;146612;574;47012;-78
2022/10/28 00:21:36;;;;;;;;;16.25;12.50;;;;;17.31;64.81;102100.72;146615;653;46017;-78
2022/10/28 00:24:30;;;;;;;;;16.25;15.75;;;;;17.37;64.89;102093.97;146619;613;46010;-77
2022/10/28 00:27:32;;;;;;;;;20.25;14.75;;;;;17.42;64.18;102097.72;146614;606;47016;-77
2022/10/28 00:30:29;;;;;;;;;15.00;14.50;;;;;17.46;65.35;102097.91;146619;569;46010;-78
2022/10/28 00:33:28;;;;;;;;;16.25;14.75;;;;;17.48;63.74;102095.38;146613;648;46016;-80
2022/10/28 00:36:40;;;;;;;;;16.25;14.50;;;;;17.43;64.18;102089.91;146619;578;46020;-80
2022/10/28 00:39:36;;;;;;;;;16.00;14.00;;;;;17.41;65.09;102098.53;146615;686;46014;-80
2022/10/28 00:42:44;;;;;;;;;18.75;13.75;;;;;17.43;65.09;102096.88;146617;617;46010;-79
2022/10/28 00:45:57;;;;;;;;;15.50;13.50;;;;;17.48;65.10;102093.66;146616;604;46016;-80
2022/10/28 00:49:38;;;;;;;;;15.00;13.25;;;;;17.49;64.61;102084.94;146616;577;46020;-79
2022/10/28 00:52:35;;;;;;;;;16.00;14.25;;;;;17.48;64.67;102083.16;146615;606;46016;-81
2022/10/28 00:55:39;;;;;;;;;17.25;16.00;;;;;17.46;65.21;102078.66;146619;590;46020;-81
2022/10/28 00:58:49;;;;;;;;;;;;;;;;;;;;;
2022/10/28 01:01:48;;;;;;;;;14.75;13.75;;;;;17.35;65.16;102080.78;146606;604;47010;-82
2022/10/28 01:04:41;;;;;;;;;16.50;15.50;;;;;17.36;64.77;102079.97;146602;565;47013;-82
2022/10/28 01:07:42;;;;;;;;;15.50;13.00;;;;;17.36;64.77;102081.72;146607;608;46020;-82
2022/10/28 01:11:30;;;;;;;;;16.00;12.00;;;;;15.62;64.46;101785.59;146603;591;46032;-81
2022/10/28 01:15:36;;;;;;;;;12.25;11.75;;;;;15.42;64.75;101760.22;146609;679;46029;-83
2022/10/28 01:19:19;;;;;;;;;18.00;14.50;;;;;17.23;64.74;102078.53;146604;572;46012;-83
2022/10/28 01:22:42;;;;;;;;;14.00;14.00;;;;;17.23;64.62;102067.16;146609;692;46020;-82
2022/10/28 01:26:10;;;;;;;;;13.75;11.00;;;;;17.22;64.55;102070.56;146604;565;46012;-81
2022/10/28 01:30:04;;;;;;;;;16.75;13.00;;;;;17.22;64.54;102063.59;146602;590;46020;-83
2022/10/28 01:33:37;;;;;;;;;11.75;11.00;;;;;17.29;64.87;102070.94;146601;573;46016;-82
2022/10/28 01:37:09;;;;;;;;;14.50;11.75;;;;;17.29;64.31;102070.06;146608;563;46010;-84
2022/10/28 01:40:54;;;;;;;;;13.50;12.75;;;;;15.41;64.23;101742.75;146603;565;47012;-81
2022/10/28 01:44:14;;;;;;;;;12.00;12.00;;;;;17.29;64.33;102067.44;146609;629;46020;-85
2022/10/28 01:47:23;;;;;;;;;14.00;13.50;;;;;17.26;64.35;102072.53;146601;606;47016;-88
2022/10/28 01:50:28;;;;;;;;;14.50;11.75;;;;;17.25;64.84;102071.59;146607;582;46021;-77
2022/10/28 01:53:34;;;;;;;;;14.25;12.75;;;;;17.22;64.56;102071.47;146606;570;46016;-78
2022/10/28 01:56:36;;;;;;;;;11.25;10.00;;;;;17.15;64.90;102061.53;146610;597;46021;-75
2022/10/28 01:59:40;;;;;;;;;11.50;11.00;;;;;17.09;64.84;102067.41;146609;576;46016;-76
2022/10/28 02:02:38;;;;;;;;;15.25;13.00;;;;;16.96;65.25;102053.66;146613;574;46020;-75
2022/10/28 02:06:02;;;;;;;;;11.25;9.00;;;;;16.94;65.18;102066.69;146610;582;46012;-76
2022/10/28 02:09:27;;;;;;;;;11.50;10.50;;;;;16.86;65.70;102068.06;146618;663;46020;-86
2022/10/28 02:12:34;;;;;;;;;12.75;10.00;;;;;16.87;64.81;102068.97;146614;597;46012;-86
2022/10/28 02:16:21;;;;;;;;;13.50;10.75;;;;;16.86;65.40;102068.06;146611;626;46020;-86
2022/10/28 02:20:22;;;;;;;;;11.25;9.50;;;;;15.12;65.25;101767.47;146610;569;46017;-86
2022/10/28 02:23:53;;;;;;;;;12.50;11.25;;;;;14.97;65.15;101736.28;146618;610;46020;-76
2022/10/28 02:26:54;;;;;;;;;11.25;11.25;;;;;16.88;65.13;102068.13;146615;594;46012;-78
2022/10/28 02:30:47;;;;;;;;;12.50;11.50;;;;;14.98;65.56;101730.22;146616;569;46020;-79
2022/10/28 02:33:47;;;;;;;;;10.75;9.50;;;;;16.79;65.96;102045.94;146614;569;46016;-79
2022/10/28 02:36:53;;;;;;;;;13.75;12.25;;;;;16.90;66.36;102058.62;146616;569;47010;-78
2022/10/28 02:39:49;;;;;;;;;10.75;9.75;;;;;16.95;66.42;102065.00;146610;599;46010;-79
2022/10/28 02:42:52;;;;;;;;;12.75;11.75;;;;;16.96;65.70;102064.16;146619;594;46021;-79
2022/10/28 02:45:54;;;;;;;;;13.25;11.75;;;;;16.93;65.96;102058.78;146612;574;46014;-79
2022/10/28 02:49:01;;;;;;;;;15.75;15.50;;;;;16.89;67.39;102056.84;146618;747;46010;-79
2022/10/28 02:52:12;;;;;;;;;17.75;16.00;;;;;16.90;67.07;102063.87;146608;591;47012;-77
2022/10/28 02:55:12;;;;;;;;;15.00;13.00;;;;;16.93;66.96;102064.00;146616;611;46021;-78
2022/10/28 02:58:11;;;;;;;;;15.50;13.25;;;;;16.97;67.29;102060.69;146608;579;46018;-75
2022/10/28 03:01:07;;;;;;;;;13.50;12.00;;;;;16.98;67.28;102060.78;146613;597;46010;-80
2022/10/28 03:04:14;;;;;;;;;14.00;13.00;;;;;17.00;67.13;102059.09;146610;623;47012;-71
2022/10/28 03:07:08;;;;;;;;;13.50;12.50;;;;;17.01;68.02;102063.53;146609;628;46030;-76
2022/10/28 03:10:11;;;;;;;;;15.25;15.00;;;;;16.99;66.81;102059.94;146608;570;46017;-80
2022/10/28 03:13:19;;;;;;;;;14.25;14.25;;;;;16.96;66.82;102066.78;146609;627;46020;-78
2022/10/28 03:16:12;;;;;;;;;17.50;16.75;;;;;16.94;67.62;102056.19;146611;629;46012;-77
2022/10/28 03:19:15;;;;;;;;;17.00;15.00;;;;;16.97;67.76;102061.59;146615;614;46021;-77
2022/10/28 03:22:30;;;;;;;;;15.50;13.75;;;;;16.99;67.68;102059.94;146609;682;46016;-78
2022/10/28 03:25:26;;;;;;;;;16.75;15.25;;;;;16.99;67.98;102062.56;146610;569;47012;-77
2022/10/28 03:28:27;;;;;;;;;17.50;16.25;;;;;16.97;67.71;102058.06;146610;716;46033;-78
2022/10/28 03:31:34;;;;;;;;;16.00;16.00;;;;;16.93;68.07;102066.63;146617;583;46010;-78
2022/10/28 03:34:27;;;;;;;;;20.25;18.25;;;;;16.88;68.11;102069.00;146606;570;47017;-89
2022/10/28 03:37:32;;;;;;;;;19.25;17.00;;;;;16.88;68.17;102069.00;146612;625;46020;-88
2022/10/28 03:40:25;;;;;;;;;16.50;15.00;;;;;16.90;68.65;102072.62;146599;651;47017;-86
2022/10/28 03:43:31;;;;;;;;;16.25;15.00;;;;;16.89;68.19;102070.84;146612;581;46020;-84
2022/10/28 03:46:26;;;;;;;;;19.00;16.25;;;;;16.90;67.90;102072.62;146609;569;46918;-82
2022/10/28 03:49:27;;;;;;;;;15.00;13.00;;;;;16.88;67.53;102071.63;146612;634;46020;-87
2022/10/28 03:52:25;;;;;;;;;18.75;17.00;;;;;16.86;68.00;102073.31;146608;569;46919;-80
2022/10/28 03:55:27;;;;;;;;;;;;;;;;;;;;;
2022/10/28 03:58:23;;;;;;;;;14.00;13.00;;;;;16.75;68.28;102084.94;146610;570;46012;-82
2022/10/28 04:01:30;;;;;;;;;16.50;14.25;;;;;16.71;67.85;102077.78;146617;621;46020;-82
2022/10/28 04:04:30;;;;;;;;;16.75;15.00;;;;;16.64;68.64;102081.84;146615;635;47016;-87
2022/10/28 04:07:41;;;;;;;;;13.50;13.50;;;;;16.55;68.32;102082.28;146617;615;47010;-87
2022/10/28 04:10:34;;;;;;;;;15.00;14.00;;;;;16.48;68.48;102084.50;146617;643;46012;-87
2022/10/28 04:13:44;;;;;;;;;15.75;15.50;;;;;14.57;68.38;101757.75;146618;609;46010;-78
2022/10/28 04:16:44;;;;;;;;;15.75;15.00;;;;;16.42;68.80;102082.50;146614;631;47014;-78
2022/10/28 04:19:38;;;;;;;;;18.00;14.75;;;;;16.42;69.67;102085.13;146615;563;46020;-91
2022/10/28 04:22:39;;;;;;;;;13.75;13.25;;;;;16.39;69.63;102085.88;146612;689;47918;-91
2022/10/28 04:25:40;;;;;;;;;17.00;16.75;;;;;16.46;69.51;102091.41;146620;627;46010;-88
2022/10/28 04:28:35;;;;;;;;;17.50;14.75;;;;;16.49;69.68;102087.22;146615;577;46012;-81
2022/10/28 04:31:30;;;;;;;;;19.50;14.25;;;;;16.52;69.07;102083.84;146618;564;46020;-81
2022/10/28 04:34:32;;;;;;;;;18.00;14.25;;;;;16.48;69.75;102085.44;146616;586;46016;-80
2022/10/28 04:37:36;;;;;;;;;16.25;12.75;;;;;16.46;69.13;102083.56;146618;587;46020;-82
2022/10/28 04:40:41;;;;;;;;;14.75;12.25;;;;;16.53;69.80;102094.37;146616;636;46016;-80
2022/10/28 04:43:42;;;;;;;;;15.75;13.50;;;;;16.57;70.06;102095.44;146617;564;47012;-81
2022/10/28 04:46:41;;;;;;;;;17.25;15.50;;;;;16.57;68.52;102090.19;146616;626;46017;-80
2022/10/28 04:49:44;;;;;;;;;18.50;15.00;;;;;16.61;68.74;102094.78;146621;590;46012;-81
2022/10/28 04:52:39;;;;;;;;;14.75;14.00;;;;;16.69;68.81;102092.50;146618;578;46017;-81
2022/10/28 04:55:39;;;;;;;;;13.75;13.00;;;;;16.72;69.36;102097.91;146616;681;46010;-81
2022/10/28 04:58:36;;;;;;;;;12.50;11.75;;;;;16.68;67.84;102082.88;146615;680;46016;-80
2022/10/28 05:01:32;;;;;;;;;14.25;13.00;;;;;16.68;68.03;102082.88;146617;730;46021;-83
2022/10/28 05:04:33;;;;;;;;;15.00;14.00;;;;;16.70;68.12;102066.41;146615;569;46014;-81
2022/10/28 05:07:28;;;;;;;;;15.50;14.50;;;;;16.76;67.62;102086.78;146616;605;46013;-74
2022/10/28 05:10:24;;;;;;;;;16.75;14.25;;;;;16.83;67.89;102094.13;146616;576;46034;-75
2022/10/28 05:13:25;;;;;;;;;14.50;12.50;;;;;16.85;68.64;102096.00;146618;598;45024;-75
2022/10/28 05:16:30;;;;;;;;;11.25;11.25;;;;;17.00;67.84;102103.66;146616;571;46016;-75
2022/10/28 05:19:31;;;;;;;;;16.00;15.00;;;;;17.09;66.00;102104.09;146620;564;45020;-74
2022/10/28 05:22:59;;;;;;;;;15.25;14.50;;;;;15.49;66.13;101796.31;146618;657;46013;-73
2022/10/28 05:26:08;;;;;;;;;13.75;12.00;;;;;15.58;66.90;101803.69;146619;565;46012;-76
2022/10/28 05:29:05;;;;;;;;;16.50;14.50;;;;;17.42;66.52;102127.44;146615;571;46016;-76
2022/10/28 05:32:13;;;;;;;;;;;;;;;;;;;;;
2022/10/28 05:35:22;;;;;;;;;16.50;14.50;;;;;17.48;66.62;102130.34;146615;573;46916;-76
2022/10/28 05:38:28;;;;;;;;;14.25;12.75;;;;;17.58;67.51;102141.25;146617;608;46020;-77
2022/10/28 05:41:22;;;;;;;;;15.75;15.25;;;;;17.66;67.18;102134.63;146618;593;46012;-77
2022/10/28 05:44:23;;;;;;;;;16.75;16.25;;;;;17.68;66.82;102140.84;146611;588;48020;-76
2022/10/28 05:47:47;;;;;;;;;16.00;14.75;;;;;17.69;65.92;102135.66;146616;573;46025;-77
2022/10/28 05:50:55;;;;;;;;;17.75;16.50;;;;;17.76;66.77;102144.72;146620;674;46019;-75
2022/10/28 05:53:50;;;;;;;;;19.25;15.75;;;;;17.81;68.43;102151.06;146619;616;46012;-76
2022/10/28 05:56:52;;;;;;;;;19.25;16.75;;;;;17.83;68.11;102162.56;146620;583;46012;-76
2022/10/28 06:00:00;;;;;;;;;18.25;15.75;;;;;16.09;68.66;101865.44;146614;612;46013;-82
2022/10/28 06:03:19;;;;;;;;;17.25;17.00;;;;;17.82;68.93;102162.47;146614;584;46020;-79
2022/10/28 06:06:18;;;;;;;;;18.25;18.25;;;;;17.78;68.25;102162.31;146611;582;46012;-80
2022/10/28 06:08:56;;;;;;;;;21.50;19.50;;;;;17.73;68.60;102165.56;146700;565;46023;-75
2022/10/28 06:12:11;;;;;;;;;;;;;;;;;;;;;
2022/10/28 06:15:28;;;;;;;;;15.75;15.25;;;;;17.81;68.39;102156.31;146613;590;46020;-73
2022/10/28 06:18:32;;;;;;;;;19.75;18.00;;;;;17.96;67.25;102178.00;146614;625;46012;-74
2022/10/28 06:21:25;;;;;;;;;17.50;16.25;;;;;17.95;68.76;102160.47;146618;573;46020;-79
2022/10/28 06:24:17;;;;;;;;;17.25;16.00;;;;;18.09;68.90;102170.66;146613;611;46013;-73
2022/10/28 06:27:22;;;;;;;;;21.75;19.50;;;;;18.18;70.27;102171.06;146619;571;46010;-75
2022/10/28 06:30:20;;;;;;;;;17.00;14.25;;;;;18.25;69.30;102178.38;146612;570;46016;-74
2022/10/28 06:33:14;;;;;;;;;17.25;17.25;;;;;17.50;69.25;102041.25;146619;584;46020;-84
2022/10/28 06:36:15;;;;;;;;;17.75;16.50;;;;;18.39;68.94;102190.38;146612;604;46016;-82
2022/10/28 06:39:25;;;;;;;;;20.75;17.00;;;;;18.44;69.27;102180.97;146617;677;46021;-78
2022/10/28 06:42:30;;;;;;;;;22.25;20.25;;;;;18.55;68.77;102180.50;146613;652;46014;-77
2022/10/28 06:45:26;;;;;;;;;22.50;20.75;;;;;18.62;68.50;102187.81;146616;602;46021;-71
2022/10/28 06:48:44;;;;;;;;;26.50;21.00;;;;;18.62;66.80;102175.56;146613;582;46014;-77
2022/10/28 06:51:39;;;;;;;;;25.75;23.50;;;;;18.76;68.11;102197.19;146619;593;45020;-74
2022/10/28 06:54:45;;;;;;;;;26.00;23.50;;;;;18.84;67.66;102203.66;146609;578;48012;-75
2022/10/28 06:57:40;;;;;;;;;22.75;21.25;;;;;18.91;68.17;102210.09;146616;611;46020;-74
2022/10/28 07:00:35;;;;;;;;;25.00;23.75;;;;;19.04;68.10;102207.09;146611;590;46916;-73
2022/10/28 07:03:32;;;;;;;;;23.50;21.00;;;;;19.16;68.21;102201.44;146616;621;46010;-75
2022/10/28 07:06:38;;;;;;;;;23.25;21.25;;;;;19.39;68.08;102197.06;146612;563;46014;-73
2022/10/28 07:09:38;;;;;;;;;20.50;14.50;;;;;19.72;66.90;102197.50;146618;574;46012;-71
2022/10/28 07:12:33;;;;;;;;;15.50;15.50;;;;;19.95;66.83;102206.22;146617;571;46012;-71
2022/10/28 07:15:29;;;;;;;;;17.50;16.50;;;;;20.17;66.53;102199.09;146618;663;46021;-70
2022/10/28 07:18:22;;;;;;;;;18.25;17.00;;;;;20.47;66.08;102192.28;146614;715;46017;-71
2022/10/28 07:21:27;;;;;;;;;;;;;;;;;;;;;
2022/10/28 07:24:22;;;;;;;;;16.50;15.25;;;;;20.75;64.51;102198.50;146619;569;46013;-71
2022/10/28 07:27:21;;;;;;;;;16.00;15.25;;;;;20.69;64.39;102199.19;146621;687;46020;-70
2022/10/28 07:30:20;;;;;;;;;16.75;15.00;;;;;20.69;64.88;102198.31;146617;570;46012;-71
2022/10/28 07:33:30;;;;;;;;;14.75;14.00;;;;;20.72;64.52;102195.78;146618;596;46020;-72
2022/10/28 07:36:25;;;;;;;;;12.50;12.25;;;;;20.79;64.61;102202.13;146614;611;46016;-71
2022/10/28 07:39:29;;;;;;;;;15.50;14.50;;;;;20.84;64.50;102208.44;146618;624;46021;-72
2022/10/28 07:42:30;;;;;;;;;14.00;14.00;;;;;20.87;64.51;102205.91;146614;587;46016;-71
2022/10/28 07:45:33;;;;;;;;;15.25;14.00;;;;;20.83;64.50;102206.66;146621;573;46011;-71
2022/10/28 07:48:30;;;;;;;;;54.50;44.25;;;;;20.91;65.66;102200.78;146616;657;46014;-71
2022/10/28 07:51:36;;;;;;;;;25.50;24.00;;;;;21.18;65.11;102206.06;146617;618;46020;-71
2022/10/28 07:54:30;;;;;;;;;20.00;19.00;;;;;21.38;64.26;102205.81;146617;582;46012;-71
2022/10/28 07:57:27;;;;;;;;;22.75;22.00;;;;;21.40;63.99;102209.34;146621;589;46010;-71
2022/10/28 08:00:19;;;;;;;;;19.25;18.00;;;;;21.32;64.02;102209.09;146614;605;48012;-71
2022/10/28 08:03:15;;;;;;;;;24.00;20.25;;;;;21.17;64.46;102208.63;146620;619;46012;-71
2022/10/28 08:06:19;;;;;;;;;23.50;21.75;;;;;20.99;64.39;102208.94;146615;577;46014;-71
2022/10/28 08:09:15;;;;;;;;;47.00;38.00;;;;;20.83;64.87;102204.00;146621;564;46010;-72
2022/10/28 08:12:15;;;;;;;;;34.25;31.00;;;;;20.74;64.88;102205.50;146616;565;46014;-71
2022/10/28 08:15:15;;;;;;;;;30.50;28.00;;;;;20.67;65.55;102200.88;146623;587;46011;-71
2022/10/28 08:18:18;;;;;;;;;26.25;23.75;;;;;20.52;65.22;102195.09;146615;634;46016;-71
2022/10/28 08:21:22;;;;;;;;;26.75;22.00;;;;;20.52;65.75;102216.16;146621;564;46010;-69
2022/10/28 08:24:28;;;;;;;;;22.25;19.50;;;;;20.46;65.68;102214.16;146617;571;46012;-70
2022/10/28 08:27:27;;;;;;;;;23.75;21.75;;;;;20.59;66.34;102215.56;146620;609;46020;-71
2022/10/28 08:30:31;;;;;;;;;22.00;19.75;;;;;20.65;66.13;102210.47;146614;569;46017;-71
2022/10/28 08:33:24;;;;;;;;;24.00;22.50;;;;;19.93;65.87;102083.28;146619;608;46020;-71
2022/10/28 08:36:20;;;;;;;;;25.75;22.50;;;;;20.68;66.23;102221.09;146615;576;46032;-71
2022/10/28 08:39:13;;;;;;;;;24.50;22.00;;;;;20.62;66.65;102227.91;146617;616;46020;-71
2022/10/28 08:42:46;;;;;;;;;21.00;20.75;;;;;20.57;65.82;102235.69;146614;563;46016;-70
2022/10/28 08:46:24;;;;;;;;;24.75;20.50;;;;;20.51;65.71;102231.09;146616;586;47010;-71
2022/10/28 08:49:27;;;;;;;;;24.00;21.75;;;;;20.53;66.93;102228.50;146610;566;46012;-71
2022/10/28 08:53:04;;;;;;;;;27.75;24.75;;;;;20.51;66.62;102239.00;146618;662;46021;-71
2022/10/28 08:56:08;;;;;;;;;30.25;27.25;;;;;19.68;66.58;102097.31;146617;579;46016;-71
2022/10/28 08:59:36;;;;;;;;;30.00;28.25;;;;;20.45;66.66;102229.94;146621;565;46012;-72
2022/10/28 09:02:35;;;;;;;;;26.75;24.50;;;;;20.43;65.92;102228.97;146616;613;46016;-71
2022/10/28 09:05:34;;;;;;;;;26.25;24.00;;;;;20.41;66.06;102228.94;146620;619;46013;-71
2022/10/28 09:08:41;;;;;;;;;24.25;22.25;;;;;20.40;66.11;102226.25;146616;592;46012;-71
2022/10/28 09:12:24;;;;;;;;;25.25;20.50;;;;;19.55;66.28;102067.91;146620;603;46010;-71
2022/10/28 09:15:49;;;;;;;;;24.25;21.00;;;;;20.52;65.60;102224.06;146614;596;46916;-71
2022/10/28 09:19:09;;;;;;;;;24.00;22.00;;;;;20.58;64.79;102215.47;146618;594;46020;-70
2022/10/28 09:22:38;;;;;;;;;15.75;13.75;;;;;20.57;63.81;102217.22;146615;601;46014;-72
2022/10/28 09:26:10;;;;;;;;;18.25;16.75;;;;;19.92;63.95;102087.66;146619;625;46020;-71
2022/10/28 09:29:41;;;;;;;;;18.75;16.75;;;;;20.69;64.10;102206.22;146613;569;46017;-71
2022/10/28 09:33:16;;;;;;;;;23.00;21.00;;;;;19.95;63.67;102044.75;146620;606;46010;-71
2022/10/28 09:36:39;;;;;;;;;21.25;20.75;;;;;20.97;63.89;102205.38;146611;609;47012;-71
2022/10/28 09:39:46;;;;;;;;;23.50;17.50;;;;;21.10;64.21;102201.38;146615;563;46010;-70
2022/10/28 09:43:14;;;;;;;;;19.25;17.25;;;;;21.23;62.85;102203.53;146614;575;46016;-71
2022/10/28 09:46:21;;;;;;;;;21.00;18.50;;;;;21.45;63.39;102197.22;146619;620;46022;-70
2022/10/28 09:49:43;;;;;;;;;;;;;;;;;;;;;
2022/10/28 09:53:41;;;;;;;;;25.50;22.00;;;;;21.98;60.93;102192.59;146621;570;46010;-70
2022/10/28 09:56:37;;;;;;;;;28.50;27.00;;;;;22.12;59.10;102187.69;146615;709;46914;-71
2022/10/28 09:59:34;;;;;;;;;18.75;18.00;;;;;22.04;59.67;102186.59;146619;597;46010;-71
2022/10/28 10:02:46;;;;;;;;;;;;;;;;;;;;;
2022/10/28 10:05:59;;;;;;;;;17.25;15.50;;;;;20.85;61.10;102045.03;146620;622;46030;-72
2022/10/28 10:08:56;;;;;;;;;20.25;18.50;;;;;21.59;61.21;102182.69;146616;637;46016;-71
2022/10/28 10:12:10;;;;;;;;;18.75;16.75;;;;;21.47;61.58;102184.97;146617;605;46020;-73
2022/10/28 10:15:11;;;;;;;;;16.75;16.00;;;;;21.37;61.74;102172.31;146614;669;46012;-70
2022/10/28 10:18:36;;;;;;;;;16.00;13.00;;;;;20.42;62.32;102014.69;146618;623;46020;-70
2022/10/28 10:22:05;;;;;;;;;15.00;14.50;;;;;21.31;62.46;102175.66;146614;581;46017;-74
2022/10/28 10:25:06;;;;;;;;;17.75;14.50;;;;;21.28;62.32;102175.56;146617;569;46020;-71
2022/10/28 10:28:45;;;;;;;;;18.25;14.50;;;;;20.34;62.56;102013.53;146618;633;46013;-72
2022/10/28 10:31:40;;;;;;;;;16.75;12.75;;;;;21.20;62.77;102175.31;146618;694;46022;-74
2022/10/28 10:34:39;;;;;;;;;16.25;14.25;;;;;21.24;62.16;102165.75;146614;572;46914;-73
2022/10/28 10:37:39;;;;;;;;;19.00;17.50;;;;;21.28;61.75;102166.72;146619;597;46018;-71
2022/10/28 10:40:38;;;;;;;;;15.50;15.50;;;;;21.29;60.71;102165.91;146614;650;46036;-73
2022/10/28 10:43:41;;;;;;;;;12.50;12.50;;;;;21.30;61.70;102165.94;146622;666;46012;-73
2022/10/28 10:46:33;;;;;;;;;21.00;17.50;;;;;21.47;61.41;102158.56;146614;563;47016;-72
2022/10/28 10:49:42;;;;;;;;;15.25;13.50;;;;;21.62;60.24;102166.94;146616;652;47012;-74
2022/10/28 10:52:36;;;;;;;;;0.00;0.00;;;;;21.84;60.34;102157.00;146621;634;46012;-70
2022/10/28 10:56:02;;;;;;;;;9.00;9.00;;;;;21.38;59.90;102008.78;146625;709;46010;-72
2022/10/28 10:59:03;;;;;;;;;16.00;13.50;;;;;21.90;58.20;102047.16;146618;687;46017;-72
2022/10/28 11:02:05;;;;;;;;;47.25;39.25;;;;;22.63;57.43;102142.34;146615;602;47020;-71
2022/10/28 11:05:14;;;;;;;;;42.75;33.25;;;;;22.90;57.12;102134.16;146616;609;46013;-71
2022/10/28 11:08:19;;;;;;;;;16.75;12.00;;;;;23.23;55.82;102141.09;146620;563;46020;-71
2022/10/28 11:11:28;;;;;;;;;19.00;17.50;;;;;23.59;55.46;102132.16;146612;615;46016;-73
2022/10/28 11:14:31;;;;;;;;;23.25;21.00;;;;;23.93;54.13;102129.31;146621;565;46012;-68
2022/10/28 11:17:46;;;;;;;;;25.50;23.00;;;;;24.20;53.43;102120.97;146615;575;46016;-73
2022/10/28 11:20:54;;;;;;;;;13.25;13.25;;;;;24.37;51.06;102115.06;146609;596;46021;-70
2022/10/28 11:24:14;;;;;;;;;27.75;23.00;;;;;24.51;51.77;102118.84;146616;574;46012;-69
2022/10/28 11:28:13;;;;;;;;;14.50;13.50;;;;;24.65;51.36;102127.94;146619;576;46011;-70
2022/10/28 11:31:37;;;;;;;;;17.50;16.50;;;;;24.79;50.54;102124.56;146616;581;46012;-69
2022/10/28 11:35:12;;;;;;;;;15.25;12.50;;;;;24.71;47.22;102115.63;146619;565;46022;-73
2022/10/28 11:38:50;;;;;;;;;19.50;18.25;;;;;23.70;48.49;101963.78;146610;599;46016;-70
2022/10/28 11:42:27;;;;;;;;;10.75;10.75;;;;;23.62;50.76;101968.94;146619;604;46021;-71
2022/10/28 11:46:00;;;;;;;;;11.67;11.33;;;;;24.46;48.15;102109.06;146619;564;46012;-72
2022/10/28 11:49:49;;;;;;;;;15.50;13.25;;;;;24.61;51.10;102098.66;146622;669;46011;-70
2022/10/28 11:53:10;;;;;;;;;15.50;13.00;;;;;24.80;48.60;102089.25;146614;630;46916;-72
2022/10/28 11:56:40;;;;;;;;;7.67;6.67;;;;;24.80;49.69;102090.13;146621;683;46020;-71
2022/10/28 12:00:09;;;;;;;;;12.50;12.25;;;;;24.79;50.02;102079.47;146611;596;48916;-73
2022/10/28 12:03:41;;;;;;;;;12.00;11.00;;;;;24.03;49.28;101934.31;146618;572;46020;-71
2022/10/28 12:07:34;;;;;;;;;13.75;12.75;;;;;24.78;45.37;102067.09;146613;581;46019;-71
2022/10/28 12:11:06;;;;;;;;;11.33;10.00;;;;;24.78;48.38;102062.69;146619;668;46020;-69
2022/10/28 12:14:21;;;;;;;;;10.00;10.00;;;;;24.80;47.83;102054.75;146618;680;46909;-72
2022/10/28 12:17:37;;;;;;;;;9.33;8.00;;;;;24.75;46.73;102051.13;146619;585;46012;-71
2022/10/28 12:20:54;;;;;;;;;12.67;10.00;;;;;24.55;46.15;102051.75;146619;632;46017;-70
2022/10/28 12:23:46;;;;;;;;;11.50;10.00;;;;;24.43;45.23;102055.09;146614;575;46020;-70
2022/10/28 12:26:49;;;;;;;;;9.00;8.00;;;;;24.42;44.49;102041.81;146617;570;46916;-72
2022/10/28 12:29:46;;;;;;;;;12.00;9.67;;;;;24.34;45.81;102041.69;146622;648;46020;-71
2022/10/28 12:32:42;;;;;;;;;10.75;8.75;;;;;24.18;47.50;102048.50;146615;663;46016;-70
2022/10/28 12:36:16;;;;;;;;;9.00;8.00;;;;;23.96;49.38;102036.66;146622;652;47010;-70
2022/10/28 12:39:53;;;;;;;;;11.00;9.00;;;;;23.84;51.25;102036.44;146616;569;46016;-69
2022/10/28 12:43:35;;;;;;;;;7.67;5.67;;;;;23.87;50.08;102035.59;146621;605;46010;-70
2022/10/28 12:47:00;;;;;;;;;8.25;7.50;;;;;23.20;49.45;101900.22;146618;675;46016;-70
2022/10/28 12:50:31;;;;;;;;;9.00;7.00;;;;;23.20;45.02;101900.22;146621;598;46010;-70
2022/10/28 12:54:32;;;;;;;;;8.67;8.33;;;;;22.92;46.76;101896.16;146619;589;46012;-70
2022/10/28 12:58:05;;;;;;;;;;;;;;;;;;;;;
2022/10/28 13:01:37;;;;;;;;;8.33;7.00;;;;;23.89;46.72;102033.84;146620;565;46016;-69
2022/10/28 13:04:39;;;;;;;;;6.33;6.00;;;;;23.88;47.16;102018.84;146620;599;47010;-70
2022/10/28 13:08:08;;;;;;;;;6.25;6.25;;;;;24.02;49.63;102021.69;146618;610;46916;-70
2022/10/28 13:11:27;;;;;;;;;7.33;7.33;;;;;24.15;46.51;102023.72;146621;641;46021;-70
2022/10/28 13:14:55;;;;;;;;;7.67;7.00;;;;;24.36;49.27;102026.69;146616;580;46014;-69
2022/10/28 13:18:29;;;;;;;;;8.33;7.67;;;;;24.55;45.61;102025.25;146621;606;46020;-73
2022/10/28 13:22:14;;;;;;;;;8.00;6.00;;;;;24.70;48.60;102032.50;146617;604;46914;-72
2022/10/28 13:25:42;;;;;;;;;7.00;6.67;;;;;24.83;48.55;102033.56;146619;564;46030;-70
2022/10/28 13:28:53;;;;;;;;;8.00;8.00;;;;;24.87;48.59;102024.78;146616;624;46016;-72
2022/10/28 13:31:54;;;;;;;;;7.00;6.00;;;;;24.84;46.27;102033.59;146624;582;46010;-71
2022/10/28 13:35:04;;;;;;;;;3.67;2.67;;;;;24.80;47.69;102025.59;146618;573;47016;-72
2022/10/28 13:38:12;;;;;;;;;5.00;5.00;;;;;24.73;46.10;102026.34;146622;630;46020;-71
2022/10/28 13:41:35;;;;;;;;;5.25;5.00;;;;;23.78;48.55;101872.12;146617;593;46016;-70
2022/10/28 13:44:57;;;;;;;;;7.00;6.33;;;;;24.53;45.37;102016.34;146624;600;46020;-71
2022/10/28 13:47:49;;;;;;;;;5.00;4.67;;;;;24.39;43.89;102018.78;146620;567;46012;-70
2022/10/28 13:51:13;;;;;;;;;6.33;6.33;;;;;24.30;47.35;102020.37;146622;598;46010;-72
2022/10/28 13:54:30;;;;;;;;;6.33;5.67;;;;;24.20;44.94;102014.06;146621;586;46012;-70
2022/10/28 13:57:53;;;;;;;;;7.33;6.67;;;;;24.07;47.61;102017.38;146624;572;46010;-71
2022/10/28 14:00:49;;;;;;;;;6.50;6.50;;;;;23.91;45.91;102017.13;146619;637;46012;-70
2022/10/28 14:03:56;;;;;;;;;5.33;5.00;;;;;23.72;49.35;102015.91;146623;595;46021;-71
2022/10/28 14:06:52;;;;;;;;;6.33;6.00;;;;;23.58;45.05;102017.38;146621;650;46012;-70
2022/10/28 14:10:14;;;;;;;;;7.00;7.00;;;;;23.45;47.33;102018.03;146623;622;46013;-71
2022/10/28 14:13:27;;;;;;;;;4.00;4.00;;;;;23.36;46.61;102024.03;146619;566;46012;-71
2022/10/28 14:16:55;;;;;;;;;12.67;9.33;;;;;22.41;47.95;101859.91;146621;565;46020;-70
2022/10/28 14:19:56;;;;;;;;;6.00;5.67;;;;;23.24;44.70;102011.47;146620;634;46019;-71
2022/10/28 14:22:58;;;;;;;;;7.00;6.00;;;;;22.27;46.20;101854.31;146621;580;46012;-71
2022/10/28 14:26:10;;;;;;;;;7.33;6.00;;;;;23.14;45.88;102013.88;146620;567;46016;-70
2022/10/28 14:29:39;;;;;;;;;4.33;4.33;;;;;22.25;44.40;101867.50;146625;569;46010;-72
2022/10/28 14:33:23;;;;;;;;;5.33;4.67;;;;;21.55;44.33;101753.25;146618;609;46014;-72
2022/10/28 14:37:07;;;;;;;;;6.00;5.00;;;;;22.02;45.81;101851.09;146622;579;46033;-71
2022/10/28 14:40:34;;;;;;;;;6.33;3.67;;;;;22.90;45.41;102008.97;146617;672;46016;-71